Time;durP1;ratioP1;P1;durP2;ratioP2;P2;SDS_P1;SDS_P2;PMS_P1;PMS_P2;Temp;Humidity;BMP_temperature;BMP_pressure;BME280_temperature;BME280_humidity;BME280_pressure;Samples;Min_cycle;Max_cycle;Signal;HPM_P1;HPM_P2
2022/11/26 00:02:27;;;;;;;12.20;5.15;;;;;;;;;;4860608;29;20064;-85
2022/11/26 00:04:54;;;;;;;10.52;5.40;;;;;;;;;;4865081;29;20437;-85
2022/11/26 00:07:24;;;;;;;10.18;5.22;;;;;;;;;;4880269;29;20430;-85
2022/11/26 00:09:50;;;;;;;10.60;5.03;;;;;;;;;;4852954;29;20089;-84
2022/11/26 00:12:22;;;;;;;12.05;5.47;;;;;;;;;;4860902;29;20033;-85
2022/11/26 00:14:48;;;;;;;9.55;5.05;;;;;;;;;;4875034;29;20035;-85
2022/11/26 00:17:14;;;;;;;7.63;4.45;;;;;;;;;;4863990;29;20017;-85
2022/11/26 00:19:41;;;;;;;9.15;5.38;;;;;;;;;;4853447;29;20571;-85
2022/11/26 00:22:25;;;;;;;11.88;5.47;;;;;;;;;;4880125;29;20055;-85
2022/11/26 00:24:52;;;;;;;10.15;5.18;;;;;;;;;;4860565;29;20049;-85
2022/11/26 00:27:18;;;;;;;11.65;5.50;;;;;;;;;;4867218;29;20029;-85
2022/11/26 00:29:43;;;;;;;10.93;5.65;;;;;;;;;;4884191;29;20027;-85
2022/11/26 00:32:16;;;;;;;11.30;4.75;;;;;;;;;;4866152;29;20473;-85
2022/11/26 00:34:42;;;;;;;11.98;5.40;;;;;;;;;;4864473;29;20502;-85
2022/11/26 00:37:30;;;;;;;11.88;5.35;;;;;;;;;;4862844;29;20028;-85
2022/11/26 00:39:56;;;;;;;11.52;5.18;;;;;;;;;;4875289;29;20553;-85
2022/11/26 00:42:22;;;;;;;9.18;4.85;;;;;;;;;;4868774;29;20032;-85
2022/11/26 00:44:47;;;;;;;10.90;5.30;;;;;;;;;;4868147;29;20149;-85
2022/11/26 00:47:13;;;;;;;9.45;5.18;;;;;;;;;;4860332;29;20039;-85
2022/11/26 00:49:38;;;;;;;10.23;4.85;;;;;;;;;;4872226;29;20052;-85
2022/11/26 00:52:38;;;;;;;12.75;5.57;;;;;;;;;;4901331;29;20036;-85
2022/11/26 00:55:14;;;;;;;8.68;4.78;;;;;;;;;;4877010;29;20036;-84
2022/11/26 00:57:39;;;;;;;10.43;4.85;;;;;;;;;;4894248;29;20111;-85
2022/11/26 01:00:23;;;;;;;8.02;4.97;;;;;;;;;;4873016;29;20491;-85
2022/11/26 01:02:49;;;;;;;11.63;4.90;;;;;;;;;;4898124;29;20094;-85
2022/11/26 01:05:15;;;;;;;11.18;5.68;;;;;;;;;;4876895;29;20024;-84
2022/11/26 01:07:41;;;;;;;11.73;5.40;;;;;;;;;;4872550;29;20057;-85
2022/11/26 01:10:14;;;;;;;10.20;5.35;;;;;;;;;;4880011;29;20029;-85
2022/11/26 01:12:40;;;;;;;10.18;5.40;;;;;;;;;;4878797;29;20092;-85
2022/11/26 01:15:06;;;;;;;11.32;4.97;;;;;;;;;;4873135;29;20037;-85
2022/11/26 01:17:31;;;;;;;10.32;5.40;;;;;;;;;;4878660;29;20111;-85
2022/11/26 01:19:56;;;;;;;11.32;5.53;;;;;;;;;;4876935;29;20418;-84
2022/11/26 01:22:22;;;;;;;13.55;5.80;;;;;;;;;;4879029;29;20374;-85
2022/11/26 01:24:49;;;;;;;12.27;5.75;;;;;;;;;;4877206;29;20033;-85
2022/11/26 01:27:19;;;;;;;11.70;5.47;;;;;;;;;;4897648;29;20512;-84
2022/11/26 01:29:45;;;;;;;9.27;5.25;;;;;;;;;;4882160;29;20092;-85
2022/11/26 01:32:10;;;;;;;11.60;5.30;;;;;;;;;;4885697;29;20488;-85
2022/11/26 01:34:35;;;;;;;12.70;6.35;;;;;;;;;;4886303;29;20025;-85
2022/11/26 01:37:01;;;;;;;8.60;5.25;;;;;;;;;;4875141;29;20115;-85
2022/11/26 01:39:26;;;;;;;8.98;4.75;;;;;;;;;;4881143;29;20028;-85
2022/11/26 01:42:10;;;;;;;12.43;5.40;;;;;;;;;;4881585;29;20021;-84
2022/11/26 01:44:36;;;;;;;10.98;5.13;;;;;;;;;;4902527;29;20032;-85
2022/11/26 01:47:20;;;;;;;8.85;4.78;;;;;;;;;;4876143;29;20044;-85
2022/11/26 01:50:23;;;;;;;13.88;5.13;;;;;;;;;;4882236;29;20379;-85
2022/11/26 01:52:49;;;;;;;14.52;5.65;;;;;;;;;;4894809;29;20470;-85
2022/11/26 01:55:16;;;;;;;10.45;5.35;;;;;;;;;;4880659;29;20036;-85
2022/11/26 01:57:43;;;;;;;11.98;5.53;;;;;;;;;;4888461;29;20024;-85
2022/11/26 02:00:09;;;;;;;11.13;5.55;;;;;;;;;;4890236;29;21773;-85
2022/11/26 02:02:35;;;;;;;14.25;6.07;;;;;;;;;;4876043;29;20493;-85
2022/11/26 02:05:19;;;;;;;10.63;6.40;;;;;;;;;;4882501;29;20052;-84
2022/11/26 02:07:45;;;;;;;10.95;5.60;;;;;;;;;;4871457;29;20064;-85
2022/11/26 02:10:12;;;;;;;11.85;5.68;;;;;;;;;;4878452;29;20033;-85
2022/11/26 02:12:38;;;;;;;10.50;5.53;;;;;;;;;;4873483;29;21168;-84
2022/11/26 02:15:04;;;;;;;11.20;5.30;;;;;;;;;;4896082;29;20088;-85
2022/11/26 02:17:48;;;;;;;11.25;5.60;;;;;;;;;;4892230;29;20028;-85
2022/11/26 02:20:39;;;;;;;11.60;5.80;;;;;;;;;;4877303;29;20028;-85
2022/11/26 02:23:16;;;;;;;10.65;5.68;;;;;;;;;;4873734;29;20441;-85
2022/11/26 02:26:10;;;;;;;12.18;5.85;;;;;;;;;;4877903;29;20020;-85
2022/11/26 02:28:47;;;;;;;11.55;5.93;;;;;;;;;;4876307;29;20036;-85
2022/11/26 02:31:25;;;;;;;10.52;5.53;;;;;;;;;;4879544;29;20096;-85
2022/11/26 02:34:33;;;;;;;11.75;6.40;;;;;;;;;;4875792;29;20119;-84
2022/11/26 02:37:02;;;;;;;14.93;6.72;;;;;;;;;;4817508;29;20055;-85
2022/11/26 02:39:29;;;;;;;11.18;5.70;;;;;;;;;;4870011;29;20032;-85
2022/11/26 02:41:58;;;;;;;12.50;5.65;;;;;;;;;;4895983;29;20031;-85
2022/11/26 02:44:30;;;;;;;9.35;5.80;;;;;;;;;;4877691;29;20505;-85
2022/11/26 02:47:03;;;;;;;14.93;6.13;;;;;;;;;;4872972;29;20040;-85
2022/11/26 02:49:30;;;;;;;11.00;5.70;;;;;;;;;;4877602;29;20515;-85
2022/11/26 02:51:59;;;;;;;12.50;5.90;;;;;;;;;;4865302;29;20068;-85
2022/11/26 02:54:26;;;;;;;10.65;5.50;;;;;;;;;;4873911;29;20124;-85
2022/11/26 02:56:53;;;;;;;11.80;5.78;;;;;;;;;;4874982;29;20025;-85
2022/11/26 02:59:19;;;;;;;11.20;5.55;;;;;;;;;;4840680;29;20041;-85
2022/11/26 03:01:57;;;;;;;13.40;6.18;;;;;;;;;;4862354;29;20108;-85
2022/11/26 03:04:32;;;;;;;9.30;5.93;;;;;;;;;;4859474;29;20029;-85
2022/11/26 03:07:02;;;;;;;12.48;5.70;;;;;;;;;;4855873;29;20482;-85
2022/11/26 03:09:38;;;;;;;10.38;6.28;;;;;;;;;;4859180;29;20415;-85
2022/11/26 03:12:03;;;;;;;12.88;6.63;;;;;;;;;;4874269;29;20033;-84
2022/11/26 03:14:29;;;;;;;9.95;6.28;;;;;;;;;;4855547;29;20044;-84
2022/11/26 03:16:54;;;;;;;14.65;6.78;;;;;;;;;;4874258;29;20041;-85
2022/11/26 03:19:19;;;;;;;11.63;6.10;;;;;;;;;;4859642;29;20029;-85
2022/11/26 03:21:45;;;;;;;10.85;5.45;;;;;;;;;;4859848;29;20032;-85
2022/11/26 03:24:11;;;;;;;12.57;5.95;;;;;;;;;;4871986;29;20111;-85
2022/11/26 03:26:36;;;;;;;12.13;5.72;;;;;;;;;;4862096;29;20504;-85
2022/11/26 03:29:02;;;;;;;11.68;5.80;;;;;;;;;;4876851;29;20037;-85
2022/11/26 03:31:27;;;;;;;12.32;6.63;;;;;;;;;;4874118;29;20033;-85
2022/11/26 03:33:53;;;;;;;13.80;6.40;;;;;;;;;;4860523;29;20037;-85
2022/11/26 03:36:18;;;;;;;12.18;5.97;;;;;;;;;;4858659;29;20174;-85
2022/11/26 03:38:44;;;;;;;9.73;5.75;;;;;;;;;;4877704;29;20098;-85
2022/11/26 03:41:10;;;;;;;16.63;6.95;;;;;;;;;;4861873;29;20040;-85
2022/11/26 03:43:35;;;;;;;11.05;6.35;;;;;;;;;;4864235;29;20095;-85
2022/11/26 03:46:00;;;;;;;13.48;6.53;;;;;;;;;;4862923;29;20033;-85
2022/11/26 03:48:26;;;;;;;10.75;5.80;;;;;;;;;;4860461;29;20033;-85
2022/11/26 03:50:51;;;;;;;13.20;6.53;;;;;;;;;;4880098;29;20059;-85
2022/11/26 03:53:17;;;;;;;12.82;6.38;;;;;;;;;;4874766;29;20490;-85
2022/11/26 03:55:42;;;;;;;13.73;6.70;;;;;;;;;;4868377;29;20112;-85
2022/11/26 03:58:07;;;;;;;10.95;6.15;;;;;;;;;;4867820;29;20028;-85
2022/11/26 04:00:33;;;;;;;11.00;5.65;;;;;;;;;;4871860;29;20468;-85
2022/11/26 04:02:58;;;;;;;11.07;6.00;;;;;;;;;;4873196;29;20025;-85
2022/11/26 04:05:23;;;;;;;13.93;6.35;;;;;;;;;;4875642;29;20064;-85
2022/11/26 04:07:49;;;;;;;10.93;6.10;;;;;;;;;;4873524;29;20047;-85
2022/11/26 04:10:14;;;;;;;14.35;6.13;;;;;;;;;;4876456;29;20127;-85
2022/11/26 04:12:40;;;;;;;13.30;6.78;;;;;;;;;;4873854;29;20393;-85
2022/11/26 04:15:06;;;;;;;11.93;6.28;;;;;;;;;;4877981;29;20032;-85
2022/11/26 04:17:31;;;;;;;10.90;5.95;;;;;;;;;;4874542;29;20450;-85
2022/11/26 04:19:56;;;;;;;11.57;5.43;;;;;;;;;;4875447;29;20097;-85
2022/11/26 04:22:22;;;;;;;12.75;6.35;;;;;;;;;;4871843;29;20072;-84
2022/11/26 04:24:47;;;;;;;12.32;5.95;;;;;;;;;;4873284;29;20445;-85
2022/11/26 04:27:12;;;;;;;9.45;5.57;;;;;;;;;;4874807;29;20032;-85
2022/11/26 04:29:38;;;;;;;11.82;5.90;;;;;;;;;;4872564;29;20490;-85
2022/11/26 04:32:04;;;;;;;13.00;6.32;;;;;;;;;;4874978;29;20097;-85
2022/11/26 04:34:29;;;;;;;13.85;6.15;;;;;;;;;;4875352;29;20043;-85
2022/11/26 04:36:55;;;;;;;13.82;6.30;;;;;;;;;;4875649;29;20391;-84
2022/11/26 04:39:20;;;;;;;10.18;5.97;;;;;;;;;;4875608;29;20044;-85
2022/11/26 04:41:46;;;;;;;11.75;6.05;;;;;;;;;;4874971;29;20691;-85
2022/11/26 04:44:11;;;;;;;12.73;6.05;;;;;;;;;;4881845;29;20075;-85
2022/11/26 04:46:37;;;;;;;12.68;5.82;;;;;;;;;;4877167;29;20033;-85
2022/11/26 04:49:02;;;;;;;9.98;5.97;;;;;;;;;;4875163;29;20139;-85
2022/11/26 04:51:27;;;;;;;11.65;6.13;;;;;;;;;;4896601;29;20053;-85
2022/11/26 04:53:53;;;;;;;13.32;5.78;;;;;;;;;;4894159;29;20028;-85
2022/11/26 04:56:18;;;;;;;10.32;5.75;;;;;;;;;;4888498;29;20103;-85
2022/11/26 04:58:43;;;;;;;11.55;5.65;;;;;;;;;;4875862;29;20047;-85
2022/11/26 05:01:09;;;;;;;12.32;5.93;;;;;;;;;;4879902;29;20037;-85
2022/11/26 05:03:35;;;;;;;12.48;6.20;;;;;;;;;;4876759;29;20036;-85
2022/11/26 05:06:01;;;;;;;10.65;5.95;;;;;;;;;;4881671;29;20474;-85
2022/11/26 05:08:26;;;;;;;12.63;6.15;;;;;;;;;;4879377;29;20033;-85
2022/11/26 05:10:53;;;;;;;13.38;6.10;;;;;;;;;;4876115;29;20485;-85
2022/11/26 05:13:19;;;;;;;9.88;5.43;;;;;;;;;;4890487;29;20028;-85
2022/11/26 05:15:44;;;;;;;11.52;5.95;;;;;;;;;;4881685;29;20510;-85
2022/11/26 05:18:11;;;;;;;12.52;5.30;;;;;;;;;;4875439;29;20032;-84
2022/11/26 05:20:39;;;;;;;12.45;5.60;;;;;;;;;;4879742;29;20029;-84
2022/11/26 05:23:05;;;;;;;14.65;6.07;;;;;;;;;;4875554;29;20123;-85
2022/11/26 05:25:30;;;;;;;13.98;6.18;;;;;;;;;;4879128;29;20482;-85
2022/11/26 05:27:56;;;;;;;10.07;5.15;;;;;;;;;;4890490;29;20036;-85
2022/11/26 05:30:21;;;;;;;12.30;5.90;;;;;;;;;;4880203;29;20481;-85
2022/11/26 05:32:46;;;;;;;11.65;5.72;;;;;;;;;;4880970;29;20080;-85
2022/11/26 05:35:12;;;;;;;9.23;5.13;;;;;;;;;;4893095;29;20033;-84
2022/11/26 05:37:37;;;;;;;12.40;5.40;;;;;;;;;;4883189;29;20025;-85
2022/11/26 05:40:04;;;;;;;11.60;6.00;;;;;;;;;;4882420;29;20036;-85
2022/11/26 05:42:29;;;;;;;13.85;5.68;;;;;;;;;;4878779;29;20036;-85
2022/11/26 05:44:54;;;;;;;10.32;5.30;;;;;;;;;;4876437;29;20039;-85
2022/11/26 05:47:20;;;;;;;12.63;6.03;;;;;;;;;;4881522;29;20029;-85
2022/11/26 05:49:45;;;;;;;12.85;5.65;;;;;;;;;;4878324;29;20052;-85
2022/11/26 05:52:11;;;;;;;11.90;4.90;;;;;;;;;;4878411;29;20035;-85
2022/11/26 05:54:36;;;;;;;12.55;5.80;;;;;;;;;;4879034;29;20036;-85
2022/11/26 05:57:01;;;;;;;14.32;5.80;;;;;;;;;;4875537;29;20021;-84
2022/11/26 05:59:27;;;;;;;13.63;5.53;;;;;;;;;;4874031;29;20597;-85
2022/11/26 06:01:52;;;;;;;11.43;5.57;;;;;;;;;;4880021;29;20032;-85
2022/11/26 06:04:18;;;;;;;9.43;4.68;;;;;;;;;;4878201;29;20028;-85
2022/11/26 06:06:43;;;;;;;12.73;6.72;;;;;;;;;;4874049;29;20040;-85
2022/11/26 06:09:09;;;;;;;11.63;5.60;;;;;;;;;;4893504;29;20041;-85
2022/11/26 06:11:34;;;;;;;13.27;5.70;;;;;;;;;;4877195;29;20579;-84
2022/11/26 06:13:59;;;;;;;11.35;5.15;;;;;;;;;;4875206;29;20036;-85
2022/11/26 06:16:25;;;;;;;10.60;5.22;;;;;;;;;;4875188;29;20368;-85
2022/11/26 06:18:50;;;;;;;12.48;4.90;;;;;;;;;;4884455;29;20425;-85
2022/11/26 06:21:16;;;;;;;10.35;4.47;;;;;;;;;;4869698;29;20025;-85
2022/11/26 06:23:41;;;;;;;15.48;5.30;;;;;;;;;;4876656;29;20032;-85
2022/11/26 06:26:09;;;;;;;13.35;5.35;;;;;;;;;;4868336;29;20122;-85
2022/11/26 06:28:34;;;;;;;14.50;5.40;;;;;;;;;;4876887;29;20032;-85
2022/11/26 06:30:59;;;;;;;9.23;4.90;;;;;;;;;;4874406;29;20397;-85
2022/11/26 06:33:25;;;;;;;13.48;4.80;;;;;;;;;;4878586;29;20076;-85
2022/11/26 06:35:50;;;;;;;11.25;4.85;;;;;;;;;;4878223;29;20024;-85
2022/11/26 06:38:16;;;;;;;13.30;4.93;;;;;;;;;;4880825;29;20025;-85
2022/11/26 06:40:41;;;;;;;11.40;5.03;;;;;;;;;;4875770;29;20457;-85
2022/11/26 06:43:07;;;;;;;14.10;5.78;;;;;;;;;;4877419;29;20025;-85
2022/11/26 06:45:33;;;;;;;8.30;4.50;;;;;;;;;;4877288;29;20120;-85
2022/11/26 06:47:59;;;;;;;13.27;4.95;;;;;;;;;;4876957;29;20035;-84
2022/11/26 06:50:24;;;;;;;9.95;4.53;;;;;;;;;;4871637;29;20049;-85
2022/11/26 06:52:52;;;;;;;9.18;4.70;;;;;;;;;;4874820;29;20044;-85
2022/11/26 06:55:18;;;;;;;13.10;5.07;;;;;;;;;;4883708;29;20035;-85
2022/11/26 06:57:44;;;;;;;12.77;4.75;;;;;;;;;;4877818;29;20088;-85
2022/11/26 07:00:10;;;;;;;9.57;4.60;;;;;;;;;;4879570;29;20064;-85
2022/11/26 07:02:37;;;;;;;9.55;4.68;;;;;;;;;;4874254;29;20035;-85
2022/11/26 07:05:02;;;;;;;11.10;4.28;;;;;;;;;;4875499;29;20390;-85
2022/11/26 07:07:28;;;;;;;9.80;4.32;;;;;;;;;;4876224;29;20031;-85
2022/11/26 07:09:53;;;;;;;13.52;4.38;;;;;;;;;;4874679;29;20625;-85
2022/11/26 07:12:19;;;;;;;11.85;4.50;;;;;;;;;;4879958;29;20031;-85
2022/11/26 07:14:44;;;;;;;10.27;4.18;;;;;;;;;;4875362;29;20036;-85
2022/11/26 07:17:09;;;;;;;12.05;4.30;;;;;;;;;;4873901;29;20032;-85
2022/11/26 07:19:35;;;;;;;9.30;4.07;;;;;;;;;;4876511;29;20039;-85
2022/11/26 07:22:00;;;;;;;8.52;4.07;;;;;;;;;;4871450;29;20040;-85
2022/11/26 07:24:26;;;;;;;12.85;5.10;;;;;;;;;;4885461;29;20028;-85
2022/11/26 07:26:51;;;;;;;7.93;4.00;;;;;;;;;;4877609;29;20123;-85
2022/11/26 07:29:17;;;;;;;11.90;4.57;;;;;;;;;;4878843;29;20029;-85
2022/11/26 07:31:42;;;;;;;9.25;4.20;;;;;;;;;;4896300;29;20054;-86
2022/11/26 07:34:07;;;;;;;10.32;4.57;;;;;;;;;;4885576;29;20060;-85
2022/11/26 07:36:33;;;;;;;10.90;4.22;;;;;;;;;;4885616;29;20453;-86
2022/11/26 07:39:00;;;;;;;9.60;4.40;;;;;;;;;;4885490;29;20033;-86
2022/11/26 07:41:27;;;;;;;11.18;4.30;;;;;;;;;;4888922;29;20032;-85
2022/11/26 07:43:53;;;;;;;10.55;4.88;;;;;;;;;;4884663;29;20104;-86
2022/11/26 07:46:21;;;;;;;12.57;4.32;;;;;;;;;;4886237;29;20482;-86
2022/11/26 07:48:47;;;;;;;11.50;4.68;;;;;;;;;;4877078;29;20532;-86
2022/11/26 07:51:24;;;;;;;14.00;5.00;;;;;;;;;;4884849;29;20056;-85
2022/11/26 07:53:50;;;;;;;12.18;4.53;;;;;;;;;;4883687;29;20045;-85
2022/11/26 07:56:16;;;;;;;9.05;4.10;;;;;;;;;;4878453;29;20103;-86
2022/11/26 07:58:42;;;;;;;12.05;4.72;;;;;;;;;;4874838;29;20035;-85
2022/11/26 08:01:19;;;;;;;12.38;4.80;;;;;;;;;;4867692;29;20673;-85
2022/11/26 08:03:46;;;;;;;12.35;4.18;;;;;;;;;;4867013;29;20032;-85
2022/11/26 08:06:15;;;;;;;10.02;4.07;;;;;;;;;;4896826;29;20039;-85
2022/11/26 08:08:41;;;;;;;7.65;4.05;;;;;;;;;;4865828;29;20044;-85
2022/11/26 08:11:14;;;;;;;6.78;3.53;;;;;;;;;;4895808;29;20035;-85
2022/11/26 08:13:40;;;;;;;11.93;4.13;;;;;;;;;;4882139;29;20032;-85
2022/11/26 08:16:06;;;;;;;11.02;4.32;;;;;;;;;;4894494;29;20485;-86
2022/11/26 08:18:31;;;;;;;12.95;4.68;;;;;;;;;;4879643;29;20097;-85
2022/11/26 08:20:57;;;;;;;11.98;4.45;;;;;;;;;;4876446;29;20029;-85
2022/11/26 08:23:24;;;;;;;11.02;4.00;;;;;;;;;;4903966;29;20541;-86
2022/11/26 08:25:50;;;;;;;11.07;4.20;;;;;;;;;;4882423;29;20112;-86
2022/11/26 08:28:15;;;;;;;11.48;3.92;;;;;;;;;;4895805;29;20021;-86
2022/11/26 08:30:41;;;;;;;12.65;4.88;;;;;;;;;;4895529;29;20043;-86
2022/11/26 08:33:06;;;;;;;10.45;4.28;;;;;;;;;;4894653;29;20508;-86
2022/11/26 08:35:34;;;;;;;11.00;4.10;;;;;;;;;;4881951;29;20067;-85
2022/11/26 08:37:59;;;;;;;13.80;5.03;;;;;;;;;;4895598;29;20371;-86
2022/11/26 08:40:24;;;;;;;9.93;3.78;;;;;;;;;;4879077;29;20115;-85
2022/11/26 08:42:50;;;;;;;7.90;3.90;;;;;;;;;;4884444;29;20062;-86
2022/11/26 08:45:15;;;;;;;9.52;3.90;;;;;;;;;;4898352;29;20038;-85
2022/11/26 08:47:40;;;;;;;12.88;4.80;;;;;;;;;;4882591;29;20032;-86
2022/11/26 08:50:06;;;;;;;8.88;4.03;;;;;;;;;;4876901;29;20068;-85
2022/11/26 08:52:32;;;;;;;13.85;4.57;;;;;;;;;;4880095;29;20035;-86
2022/11/26 08:54:57;;;;;;;9.75;4.22;;;;;;;;;;4880926;29;20033;-86
2022/11/26 08:57:23;;;;;;;10.32;4.22;;;;;;;;;;4875095;29;20039;-86
2022/11/26 08:59:50;;;;;;;11.20;4.97;;;;;;;;;;4892165;29;20031;-87
2022/11/26 09:02:16;;;;;;;11.50;4.30;;;;;;;;;;4894198;29;20561;-87
2022/11/26 09:04:41;;;;;;;9.07;3.72;;;;;;;;;;4881385;29;20119;-87
2022/11/26 09:07:07;;;;;;;9.15;5.13;;;;;;;;;;4877497;29;20055;-87
2022/11/26 09:09:32;;;;;;;10.32;5.00;;;;;;;;;;4876871;29;20595;-87
2022/11/26 09:11:59;;;;;;;10.20;4.22;;;;;;;;;;4889485;29;20032;-88
2022/11/26 09:14:33;;;;;;;9.95;4.53;;;;;;;;;;4874165;29;20028;-87
2022/11/26 09:16:59;;;;;;;11.30;4.55;;;;;;;;;;4867927;29;20025;-87
2022/11/26 09:19:26;;;;;;;11.80;4.88;;;;;;;;;;4878525;29;20035;-87
2022/11/26 09:21:51;;;;;;;14.50;4.70;;;;;;;;;;4876365;29;20055;-87
2022/11/26 09:24:17;;;;;;;10.45;4.30;;;;;;;;;;4892796;29;20454;-87
2022/11/26 09:26:43;;;;;;;9.75;4.18;;;;;;;;;;4875863;29;20025;-87
2022/11/26 09:29:13;;;;;;;9.57;4.13;;;;;;;;;;4877615;29;20096;-87
2022/11/26 09:31:38;;;;;;;12.25;4.38;;;;;;;;;;4877674;29;20032;-87
2022/11/26 09:34:04;;;;;;;13.13;4.72;;;;;;;;;;4882599;29;20044;-88
2022/11/26 09:36:29;;;;;;;11.68;4.85;;;;;;;;;;4882160;29;20039;-87
2022/11/26 09:38:56;;;;;;;13.57;5.20;;;;;;;;;;4876239;29;20115;-87
2022/11/26 09:41:30;;;;;;;9.50;4.10;;;;;;;;;;4878192;29;20031;-88
2022/11/26 09:44:24;;;;;;;9.93;4.22;;;;;;;;;;4883779;29;20668;-87
2022/11/26 09:46:57;;;;;;;10.50;4.20;;;;;;;;;;4875907;29;20083;-88
2022/11/26 09:49:24;;;;;;;8.20;4.25;;;;;;;;;;4875597;29;20040;-87
2022/11/26 09:51:54;;;;;;;11.23;4.90;;;;;;;;;;4873402;29;20036;-87
2022/11/26 09:54:22;;;;;;;9.73;4.45;;;;;;;;;;4857784;29;20048;-87
2022/11/26 09:56:52;;;;;;;10.32;4.25;;;;;;;;;;4860081;29;20025;-87
2022/11/26 09:59:19;;;;;;;11.25;4.45;;;;;;;;;;4862111;29;20059;-86
2022/11/26 10:01:45;;;;;;;10.55;4.32;;;;;;;;;;4865381;29;20064;-87
2022/11/26 10:04:20;;;;;;;10.77;4.72;;;;;;;;;;4862750;29;20454;-87
2022/11/26 10:07:06;;;;;;;11.13;4.47;;;;;;;;;;4858196;29;20394;-87
2022/11/26 10:09:41;;;;;;;13.35;4.60;;;;;;;;;;4863189;29;20564;-87
2022/11/26 10:12:40;;;;;;;10.95;4.55;;;;;;;;;;4864481;29;20033;-87
2022/11/26 10:15:17;;;;;;;14.05;4.80;;;;;;;;;;4850504;29;20035;-87
2022/11/26 10:17:57;;;;;;;10.27;4.50;;;;;;;;;;4870743;29;20030;-87
2022/11/26 10:20:41;;;;;;;9.98;4.07;;;;;;;;;;4863603;29;20025;-87
2022/11/26 10:23:12;;;;;;;11.63;4.70;;;;;;;;;;4856879;29;20402;-87
2022/11/26 10:25:44;;;;;;;14.63;4.85;;;;;;;;;;4873400;29;20041;-86
2022/11/26 10:28:21;;;;;;;11.52;4.97;;;;;;;;;;4854607;29;20025;-87
2022/11/26 10:30:55;;;;;;;10.60;4.40;;;;;;;;;;4854304;29;20177;-87
2022/11/26 10:33:20;;;;;;;9.68;4.38;;;;;;;;;;4853702;29;20036;-86
2022/11/26 10:35:48;;;;;;;17.35;4.85;;;;;;;;;;4849368;29;20068;-87
2022/11/26 10:38:14;;;;;;;12.38;5.00;;;;;;;;;;4856274;29;20853;-86
2022/11/26 10:40:39;;;;;;;13.32;4.72;;;;;;;;;;4857602;29;20037;-86
2022/11/26 10:43:04;;;;;;;14.05;4.35;;;;;;;;;;4855846;29;20057;-86
2022/11/26 10:45:48;;;;;;;13.43;5.03;;;;;;;;;;4854280;29;20048;-86
2022/11/26 10:48:31;;;;;;;11.98;4.80;;;;;;;;;;4858986;29;20111;-87
2022/11/26 10:51:01;;;;;;;11.27;4.95;;;;;;;;;;4863103;29;20053;-86
2022/11/26 10:53:30;;;;;;;12.10;4.63;;;;;;;;;;4878309;29;20041;-87
2022/11/26 10:56:02;;;;;;;15.57;5.05;;;;;;;;;;4867994;29;20036;-87
2022/11/26 10:58:31;;;;;;;11.07;5.10;;;;;;;;;;4870101;29;20067;-86
2022/11/26 11:01:00;;;;;;;14.57;5.03;;;;;;;;;;4869384;29;20033;-87
2022/11/26 11:03:30;;;;;;;13.32;5.22;;;;;;;;;;4864535;29;20483;-87
2022/11/26 11:06:17;;;;;;;16.35;4.82;;;;;;;;;;4867119;29;20044;-86
2022/11/26 11:08:43;;;;;;;13.35;4.90;;;;;;;;;;4869044;29;20064;-87
2022/11/26 11:11:28;;;;;;;14.57;5.05;;;;;;;;;;4868981;29;20533;-87
2022/11/26 11:13:54;;;;;;;15.02;5.00;;;;;;;;;;4868037;29;20045;-86
2022/11/26 11:16:38;;;;;;;11.95;4.80;;;;;;;;;;4868730;29;20069;-86
2022/11/26 11:19:18;;;;;;;10.70;5.25;;;;;;;;;;4866280;29;20037;-87
2022/11/26 11:21:44;;;;;;;13.55;5.07;;;;;;;;;;4865193;29;20043;-87
2022/11/26 11:24:16;;;;;;;12.65;4.85;;;;;;;;;;4864932;29;20029;-87
2022/11/26 11:26:43;;;;;;;14.02;4.93;;;;;;;;;;4866734;29;20044;-87
2022/11/26 11:29:27;;;;;;;13.57;5.07;;;;;;;;;;4865241;29;20115;-87
2022/11/26 11:31:54;;;;;;;15.02;5.30;;;;;;;;;;4868007;29;20029;-87
2022/11/26 11:34:33;;;;;;;9.93;5.22;;;;;;;;;;4857833;29;20041;-86
2022/11/26 11:36:58;;;;;;;15.23;5.40;;;;;;;;;;4865927;29;20036;-85
2022/11/26 11:39:32;;;;;;;15.40;5.68;;;;;;;;;;4865236;29;20206;-86
2022/11/26 11:41:59;;;;;;;11.43;5.03;;;;;;;;;;4869639;29;20449;-86
2022/11/26 11:44:34;;;;;;;11.77;4.65;;;;;;;;;;4866355;29;20585;-85
2022/11/26 11:47:19;;;;;;;11.60;5.53;;;;;;;;;;4876390;29;20414;-85
2022/11/26 11:50:09;;;;;;;11.57;4.35;;;;;;;;;;4873058;29;20399;-86
2022/11/26 11:52:37;;;;;;;11.15;4.93;;;;;;;;;;4881605;29;20502;-86
2022/11/26 11:55:12;;;;;;;18.20;4.93;;;;;;;;;;4868649;29;20119;-86
2022/11/26 11:58:05;;;;;;;13.15;5.03;;;;;;;;;;4870425;29;20119;-86
2022/11/26 12:00:49;;;;;;;10.10;4.30;;;;;;;;;;4887320;29;20083;-85
2022/11/26 12:03:43;;;;;;;10.50;4.80;;;;;;;;;;4870277;29;20648;-86
2022/11/26 12:06:38;;;;;;;17.00;5.28;;;;;;;;;;4873474;29;20268;-86
2022/11/26 12:09:16;;;;;;;13.50;4.65;;;;;;;;;;4871082;29;20032;-85
2022/11/26 12:11:53;;;;;;;14.15;4.60;;;;;;;;;;4880032;29;21486;-86
2022/11/26 12:14:23;;;;;;;12.20;4.75;;;;;;;;;;4890231;29;20037;-86
2022/11/26 12:16:54;;;;;;;12.93;4.47;;;;;;;;;;4895697;29;20119;-86
2022/11/26 12:19:41;;;;;;;18.38;5.65;;;;;;;;;;4882360;29;20024;-86
2022/11/26 12:22:17;;;;;;;14.43;4.78;;;;;;;;;;4876713;29;20032;-86
2022/11/26 12:24:48;;;;;;;13.60;4.80;;;;;;;;;;4870177;29;20894;-86
2022/11/26 12:27:22;;;;;;;11.63;4.57;;;;;;;;;;4896456;29;20036;-86
2022/11/26 12:29:59;;;;;;;12.27;4.97;;;;;;;;;;4869684;29;20198;-85
2022/11/26 12:32:37;;;;;;;16.95;4.85;;;;;;;;;;4887502;29;20119;-86
2022/11/26 12:35:12;;;;;;;14.15;4.60;;;;;;;;;;4880522;29;20036;-86
2022/11/26 12:37:40;;;;;;;13.80;4.53;;;;;;;;;;4886930;29;20100;-86
2022/11/26 12:40:17;;;;;;;17.45;5.80;;;;;;;;;;4872999;29;20075;-86
2022/11/26 12:43:23;;;;;;;18.17;4.72;;;;;;;;;;4877335;29;20159;-86
2022/11/26 12:46:06;;;;;;;12.52;3.95;;;;;;;;;;4873063;29;20045;-87
2022/11/26 12:49:00;;;;;;;16.45;5.00;;;;;;;;;;4895283;29;20045;-86
2022/11/26 12:51:48;;;;;;;9.80;4.28;;;;;;;;;;4890055;29;20056;-86
2022/11/26 12:54:23;;;;;;;13.55;4.93;;;;;;;;;;4879794;29;20035;-86
2022/11/26 12:57:19;;;;;;;10.23;4.18;;;;;;;;;;4888186;29;20429;-86
2022/11/26 12:59:47;;;;;;;13.10;4.57;;;;;;;;;;4878715;29;20439;-86
2022/11/26 13:02:33;;;;;;;13.25;4.07;;;;;;;;;;4884869;29;20063;-87
2022/11/26 13:04:58;;;;;;;10.50;3.67;;;;;;;;;;4877738;29;20516;-86
2022/11/26 13:07:49;;;;;;;13.63;4.22;;;;;;;;;;4874839;29;20057;-86
2022/11/26 13:10:28;;;;;;;14.13;4.20;;;;;;;;;;4888272;29;20392;-86
2022/11/26 13:13:10;;;;;;;10.65;4.25;;;;;;;;;;4876454;29;20095;-86
2022/11/26 13:15:55;;;;;;;11.52;3.95;;;;;;;;;;4877835;29;20036;-87
2022/11/26 13:18:30;;;;;;;12.55;3.80;;;;;;;;;;4872793;29;20029;-86
2022/11/26 13:21:26;;;;;;;11.50;4.15;;;;;;;;;;4878660;29;20036;-87
2022/11/26 13:24:21;;;;;;;11.75;3.83;;;;;;;;;;4889444;29;20037;-87
2022/11/26 13:27:08;;;;;;;12.88;4.20;;;;;;;;;;4896583;29;20489;-87
2022/11/26 13:29:52;;;;;;;13.85;4.72;;;;;;;;;;4879671;29;20508;-87
2022/11/26 13:33:07;;;;;;;14.18;4.75;;;;;;;;;;4881955;29;20020;-88
2022/11/26 13:36:06;;;;;;;10.48;4.30;;;;;;;;;;4873735;29;20115;-87
2022/11/26 13:39:04;;;;;;;13.70;3.92;;;;;;;;;;4881963;29;20033;-87
2022/11/26 13:42:03;;;;;;;11.43;3.63;;;;;;;;;;4882273;29;20405;-87
2022/11/26 13:44:50;;;;;;;8.02;3.55;;;;;;;;;;4875437;29;20089;-87
2022/11/26 13:47:39;;;;;;;13.88;3.70;;;;;;;;;;4897113;29;20115;-87
2022/11/26 13:50:18;;;;;;;12.50;3.03;;;;;;;;;;4881484;29;20049;-88
2022/11/26 13:52:58;;;;;;;11.93;3.45;;;;;;;;;;4905208;29;20032;-87
2022/11/26 13:55:39;;;;;;;12.60;3.75;;;;;;;;;;4883942;29;20481;-87
2022/11/26 13:58:16;;;;;;;11.23;3.35;;;;;;;;;;4881536;29;20028;-87
2022/11/26 14:00:42;;;;;;;13.23;4.07;;;;;;;;;;4882446;29;20032;-88
2022/11/26 14:03:46;;;;;;;18.38;4.13;;;;;;;;;;4883401;29;20482;-88
2022/11/26 14:06:12;;;;;;;13.27;4.57;;;;;;;;;;4883174;29;20458;-89
2022/11/26 14:08:43;;;;;;;20.83;7.82;;;;;;;;;;4881118;29;20063;-88
2022/11/26 14:11:11;;;;;;;24.40;7.72;;;;;;;;;;4883252;29;20047;-87
2022/11/26 14:13:37;;;;;;;15.57;5.93;;;;;;;;;;4876049;29;20115;-88
2022/11/26 14:16:05;;;;;;;21.08;8.35;;;;;;;;;;4880604;29;20115;-87
2022/11/26 14:18:50;;;;;;;20.40;6.93;;;;;;;;;;4889654;29;20025;-87
2022/11/26 14:21:17;;;;;;;16.25;4.63;;;;;;;;;;4893822;29;20028;-88
2022/11/26 14:23:46;;;;;;;15.40;5.28;;;;;;;;;;4881082;29;20448;-87
2022/11/26 14:26:27;;;;;;;14.38;4.93;;;;;;;;;;4879725;29;20029;-88
2022/11/26 14:29:06;;;;;;;16.77;4.90;;;;;;;;;;4883213;29;20036;-87
2022/11/26 14:31:32;;;;;;;16.67;6.78;;;;;;;;;;4876373;29;20044;-88
2022/11/26 14:34:37;;;;;;;15.65;7.03;;;;;;;;;;4880258;29;20099;-87
2022/11/26 14:37:12;;;;;;;16.13;6.10;;;;;;;;;;4871869;29;20108;-88
2022/11/26 14:39:37;;;;;;;11.18;3.88;;;;;;;;;;4880849;29;20041;-88
2022/11/26 14:42:03;;;;;;;7.72;3.22;;;;;;;;;;4887292;29;20031;-88
2022/11/26 14:44:28;;;;;;;12.55;4.07;;;;;;;;;;4882750;29;20027;-88
2022/11/26 14:46:58;;;;;;;13.32;4.25;;;;;;;;;;4884391;29;20044;-87
2022/11/26 14:49:34;;;;;;;10.05;3.22;;;;;;;;;;4882241;29;20035;-88
2022/11/26 14:52:03;;;;;;;15.57;3.97;;;;;;;;;;4874960;29;20081;-87
2022/11/26 14:54:35;;;;;;;11.15;4.57;;;;;;;;;;4864138;29;20044;-88